sensor_id;sensor_type;location;lat;lon;timestamp;P1;durP1;ratioP1;P2;durP2;ratioP2
76296;SDS011;65104;52.994;6.552;2023-09-08T00:01:58;6.25;;;5.18;;
76296;SDS011;65104;52.994;6.552;2023-09-08T00:04:23;5.90;;;4.53;;
76296;SDS011;65104;52.994;6.552;2023-09-08T00:06:49;7.25;;;5.03;;
76296;SDS011;65104;52.994;6.552;2023-09-08T00:09:14;6.60;;;4.85;;
76296;SDS011;65104;52.994;6.552;2023-09-08T00:11:40;8.10;;;4.97;;
76296;SDS011;65104;52.994;6.552;2023-09-08T00:14:05;7.80;;;5.13;;
76296;SDS011;65104;52.994;6.552;2023-09-08T00:16:31;7.53;;;5.05;;
76296;SDS011;65104;52.994;6.552;2023-09-08T00:18:56;7.38;;;5.50;;
76296;SDS011;65104;52.994;6.552;2023-09-08T00:21:26;6.60;;;5.05;;
76296;SDS011;65104;52.994;6.552;2023-09-08T00:23:51;7.22;;;4.82;;
76296;SDS011;65104;52.994;6.552;2023-09-08T00:26:17;5.75;;;4.90;;
76296;SDS011;65104;52.994;6.552;2023-09-08T00:28:42;6.78;;;5.45;;
76296;SDS011;65104;52.994;6.552;2023-09-08T00:31:08;6.63;;;5.07;;
76296;SDS011;65104;52.994;6.552;2023-09-08T00:33:33;8.35;;;4.88;;
76296;SDS011;65104;52.994;6.552;2023-09-08T00:35:59;6.30;;;4.80;;
76296;SDS011;65104;52.994;6.552;2023-09-08T00:38:24;6.63;;;4.80;;
76296;SDS011;65104;52.994;6.552;2023-09-08T00:40:50;5.93;;;4.68;;
76296;SDS011;65104;52.994;6.552;2023-09-08T00:43:16;6.53;;;4.97;;
76296;SDS011;65104;52.994;6.552;2023-09-08T00:45:42;6.45;;;4.55;;
76296;SDS011;65104;52.994;6.552;2023-09-08T00:48:08;9.57;;;5.10;;
76296;SDS011;65104;52.994;6.552;2023-09-08T00:50:35;6.28;;;5.22;;
76296;SDS011;65104;52.994;6.552;2023-09-08T00:53:01;6.75;;;5.18;;
76296;SDS011;65104;52.994;6.552;2023-09-08T00:55:29;7.47;;;5.63;;
76296;SDS011;65104;52.994;6.552;2023-09-08T00:57:55;6.68;;;5.07;;
76296;SDS011;65104;52.994;6.552;2023-09-08T01:00:20;8.35;;;5.05;;
76296;SDS011;65104;52.994;6.552;2023-09-08T01:02:45;7.43;;;5.60;;
76296;SDS011;65104;52.994;6.552;2023-09-08T01:05:11;6.80;;;5.78;;
76296;SDS011;65104;52.994;6.552;2023-09-08T01:07:39;5.53;;;4.95;;
76296;SDS011;65104;52.994;6.552;2023-09-08T01:10:05;6.80;;;5.10;;
76296;SDS011;65104;52.994;6.552;2023-09-08T01:12:32;7.53;;;5.90;;
76296;SDS011;65104;52.994;6.552;2023-09-08T01:14:58;7.22;;;5.32;;
76296;SDS011;65104;52.994;6.552;2023-09-08T01:17:25;7.28;;;5.35;;
76296;SDS011;65104;52.994;6.552;2023-09-08T01:19:50;7.93;;;5.43;;
76296;SDS011;65104;52.994;6.552;2023-09-08T01:22:27;7.25;;;5.20;;
76296;SDS011;65104;52.994;6.552;2023-09-08T01:27:47;7.00;;;5.25;;
76296;SDS011;65104;52.994;6.552;2023-09-08T01:30:15;5.82;;;4.80;;
76296;SDS011;65104;52.994;6.552;2023-09-08T01:32:41;7.13;;;5.07;;
76296;SDS011;65104;52.994;6.552;2023-09-08T01:35:09;7.28;;;5.05;;
76296;SDS011;65104;52.994;6.552;2023-09-08T01:37:34;7.82;;;4.90;;
76296;SDS011;65104;52.994;6.552;2023-09-08T01:39:59;7.80;;;5.40;;
76296;SDS011;65104;52.994;6.552;2023-09-08T01:42:25;7.57;;;5.78;;
76296;SDS011;65104;52.994;6.552;2023-09-08T01:44:50;5.65;;;4.93;;
76296;SDS011;65104;52.994;6.552;2023-09-08T01:47:16;7.40;;;5.10;;
76296;SDS011;65104;52.994;6.552;2023-09-08T01:49:41;6.75;;;5.28;;
76296;SDS011;65104;52.994;6.552;2023-09-08T01:52:07;7.05;;;5.35;;
76296;SDS011;65104;52.994;6.552;2023-09-08T01:54:32;8.25;;;4.90;;
76296;SDS011;65104;52.994;6.552;2023-09-08T01:56:57;6.55;;;5.53;;
76296;SDS011;65104;52.994;6.552;2023-09-08T01:59:23;8.10;;;5.63;;
76296;SDS011;65104;52.994;6.552;2023-09-08T02:01:48;8.63;;;6.03;;
76296;SDS011;65104;52.994;6.552;2023-09-08T02:04:13;6.75;;;5.75;;
76296;SDS011;65104;52.994;6.552;2023-09-08T02:06:39;7.68;;;4.80;;
76296;SDS011;65104;52.994;6.552;2023-09-08T02:09:04;8.63;;;5.90;;
76296;SDS011;65104;52.994;6.552;2023-09-08T02:11:30;6.78;;;5.28;;
76296;SDS011;65104;52.994;6.552;2023-09-08T02:13:55;7.65;;;5.28;;
76296;SDS011;65104;52.994;6.552;2023-09-08T02:16:20;8.02;;;6.03;;
76296;SDS011;65104;52.994;6.552;2023-09-08T02:18:46;8.45;;;5.72;;
76296;SDS011;65104;52.994;6.552;2023-09-08T02:21:11;8.85;;;5.63;;
76296;SDS011;65104;52.994;6.552;2023-09-08T02:23:37;7.63;;;6.35;;
76296;SDS011;65104;52.994;6.552;2023-09-08T02:26:02;8.43;;;5.78;;
76296;SDS011;65104;52.994;6.552;2023-09-08T02:28:28;7.72;;;5.43;;
76296;SDS011;65104;52.994;6.552;2023-09-08T02:30:54;7.40;;;5.70;;
76296;SDS011;65104;52.994;6.552;2023-09-08T02:33:19;7.00;;;5.90;;
76296;SDS011;65104;52.994;6.552;2023-09-08T02:35:45;7.28;;;6.05;;
76296;SDS011;65104;52.994;6.552;2023-09-08T02:38:10;11.15;;;6.30;;
76296;SDS011;65104;52.994;6.552;2023-09-08T02:40:36;7.68;;;5.80;;
76296;SDS011;65104;52.994;6.552;2023-09-08T02:43:01;7.57;;;5.43;;
76296;SDS011;65104;52.994;6.552;2023-09-08T02:45:27;8.60;;;5.53;;
76296;SDS011;65104;52.994;6.552;2023-09-08T02:47:53;7.75;;;5.85;;
76296;SDS011;65104;52.994;6.552;2023-09-08T02:50:19;8.50;;;5.70;;
76296;SDS011;65104;52.994;6.552;2023-09-08T02:52:44;9.05;;;6.18;;
76296;SDS011;65104;52.994;6.552;2023-09-08T02:55:10;6.72;;;5.40;;
76296;SDS011;65104;52.994;6.552;2023-09-08T02:57:36;9.38;;;6.38;;
76296;SDS011;65104;52.994;6.552;2023-09-08T03:00:02;9.05;;;6.10;;
76296;SDS011;65104;52.994;6.552;2023-09-08T03:02:30;10.35;;;6.40;;
76296;SDS011;65104;52.994;6.552;2023-09-08T03:04:55;8.75;;;6.35;;
76296;SDS011;65104;52.994;6.552;2023-09-08T03:07:21;8.10;;;6.30;;
76296;SDS011;65104;52.994;6.552;2023-09-08T03:09:46;8.30;;;5.78;;
76296;SDS011;65104;52.994;6.552;2023-09-08T03:12:12;7.70;;;6.30;;
76296;SDS011;65104;52.994;6.552;2023-09-08T03:14:37;8.20;;;6.45;;
76296;SDS011;65104;52.994;6.552;2023-09-08T03:17:03;7.80;;;5.47;;
76296;SDS011;65104;52.994;6.552;2023-09-08T03:19:28;8.93;;;6.15;;
76296;SDS011;65104;52.994;6.552;2023-09-08T03:21:54;10.93;;;6.50;;
76296;SDS011;65104;52.994;6.552;2023-09-08T03:24:19;8.30;;;6.07;;
76296;SDS011;65104;52.994;6.552;2023-09-08T03:26:44;7.60;;;5.90;;
76296;SDS011;65104;52.994;6.552;2023-09-08T03:29:10;9.65;;;5.78;;
76296;SDS011;65104;52.994;6.552;2023-09-08T03:31:35;10.38;;;6.20;;
76296;SDS011;65104;52.994;6.552;2023-09-08T03:34:01;9.70;;;6.57;;
76296;SDS011;65104;52.994;6.552;2023-09-08T03:36:26;8.15;;;5.65;;
76296;SDS011;65104;52.994;6.552;2023-09-08T03:38:52;7.72;;;5.72;;
76296;SDS011;65104;52.994;6.552;2023-09-08T03:41:17;8.82;;;5.72;;
76296;SDS011;65104;52.994;6.552;2023-09-08T03:43:43;7.25;;;5.68;;
76296;SDS011;65104;52.994;6.552;2023-09-08T03:46:08;8.35;;;6.10;;
76296;SDS011;65104;52.994;6.552;2023-09-08T03:48:33;7.93;;;5.97;;
76296;SDS011;65104;52.994;6.552;2023-09-08T03:50:59;9.68;;;7.13;;
76296;SDS011;65104;52.994;6.552;2023-09-08T03:53:24;10.52;;;6.13;;
76296;SDS011;65104;52.994;6.552;2023-09-08T03:55:50;8.60;;;6.38;;
76296;SDS011;65104;52.994;6.552;2023-09-08T03:58:16;8.63;;;6.05;;
76296;SDS011;65104;52.994;6.552;2023-09-08T04:00:41;8.35;;;6.00;;
76296;SDS011;65104;52.994;6.552;2023-09-08T04:03:07;6.85;;;5.72;;
76296;SDS011;65104;52.994;6.552;2023-09-08T04:05:33;8.15;;;6.20;;
76296;SDS011;65104;52.994;6.552;2023-09-08T04:07:59;7.70;;;5.95;;
76296;SDS011;65104;52.994;6.552;2023-09-08T04:10:24;8.10;;;5.75;;
76296;SDS011;65104;52.994;6.552;2023-09-08T04:12:50;10.23;;;6.70;;
76296;SDS011;65104;52.994;6.552;2023-09-08T04:15:15;7.93;;;6.18;;
76296;SDS011;65104;52.994;6.552;2023-09-08T04:17:41;8.80;;;6.13;;
76296;SDS011;65104;52.994;6.552;2023-09-08T04:20:06;8.73;;;6.32;;
76296;SDS011;65104;52.994;6.552;2023-09-08T04:22:33;7.53;;;6.15;;
76296;SDS011;65104;52.994;6.552;2023-09-08T04:24:58;7.57;;;6.00;;
76296;SDS011;65104;52.994;6.552;2023-09-08T04:27:25;9.85;;;6.15;;
76296;SDS011;65104;52.994;6.552;2023-09-08T04:29:50;11.10;;;6.38;;
76296;SDS011;65104;52.994;6.552;2023-09-08T04:32:15;10.05;;;6.53;;
76296;SDS011;65104;52.994;6.552;2023-09-08T04:34:41;8.98;;;6.15;;
76296;SDS011;65104;52.994;6.552;2023-09-08T04:37:07;10.52;;;6.38;;
76296;SDS011;65104;52.994;6.552;2023-09-08T04:39:33;10.63;;;6.72;;
76296;SDS011;65104;52.994;6.552;2023-09-08T04:41:59;10.05;;;6.57;;
76296;SDS011;65104;52.994;6.552;2023-09-08T04:44:24;10.73;;;6.75;;
76296;SDS011;65104;52.994;6.552;2023-09-08T04:46:50;10.02;;;6.78;;
76296;SDS011;65104;52.994;6.552;2023-09-08T04:49:16;8.70;;;6.10;;
76296;SDS011;65104;52.994;6.552;2023-09-08T04:51:42;7.35;;;6.13;;
76296;SDS011;65104;52.994;6.552;2023-09-08T04:54:08;10.30;;;6.57;;
76296;SDS011;65104;52.994;6.552;2023-09-08T04:56:33;8.75;;;6.28;;
76296;SDS011;65104;52.994;6.552;2023-09-08T04:58:58;10.02;;;7.18;;
76296;SDS011;65104;52.994;6.552;2023-09-08T05:01:26;9.75;;;6.43;;
76296;SDS011;65104;52.994;6.552;2023-09-08T05:03:52;9.70;;;6.40;;
76296;SDS011;65104;52.994;6.552;2023-09-08T05:06:17;9.10;;;6.68;;
76296;SDS011;65104;52.994;6.552;2023-09-08T05:08:42;10.18;;;6.60;;
76296;SDS011;65104;52.994;6.552;2023-09-08T05:11:09;11.77;;;7.10;;
76296;SDS011;65104;52.994;6.552;2023-09-08T05:13:35;8.05;;;6.15;;
76296;SDS011;65104;52.994;6.552;2023-09-08T05:16:00;10.70;;;6.75;;
76296;SDS011;65104;52.994;6.552;2023-09-08T05:18:35;12.82;;;7.28;;
76296;SDS011;65104;52.994;6.552;2023-09-08T05:21:04;9.02;;;6.63;;
76296;SDS011;65104;52.994;6.552;2023-09-08T05:23:30;10.32;;;6.63;;
76296;SDS011;65104;52.994;6.552;2023-09-08T05:25:55;9.68;;;6.70;;
76296;SDS011;65104;52.994;6.552;2023-09-08T05:28:21;10.70;;;6.65;;
76296;SDS011;65104;52.994;6.552;2023-09-08T05:30:46;9.25;;;6.95;;
76296;SDS011;65104;52.994;6.552;2023-09-08T05:33:11;8.07;;;6.28;;
76296;SDS011;65104;52.994;6.552;2023-09-08T05:35:37;10.07;;;7.05;;
76296;SDS011;65104;52.994;6.552;2023-09-08T05:38:03;10.88;;;7.15;;
76296;SDS011;65104;52.994;6.552;2023-09-08T05:40:28;10.45;;;7.03;;
76296;SDS011;65104;52.994;6.552;2023-09-08T05:42:54;9.35;;;6.32;;
76296;SDS011;65104;52.994;6.552;2023-09-08T05:45:19;10.57;;;6.88;;
76296;SDS011;65104;52.994;6.552;2023-09-08T05:47:45;8.15;;;5.85;;
76296;SDS011;65104;52.994;6.552;2023-09-08T05:50:10;10.90;;;7.20;;
76296;SDS011;65104;52.994;6.552;2023-09-08T05:52:36;8.00;;;5.97;;
76296;SDS011;65104;52.994;6.552;2023-09-08T05:55:01;8.98;;;6.90;;
76296;SDS011;65104;52.994;6.552;2023-09-08T05:57:27;10.25;;;6.25;;
76296;SDS011;65104;52.994;6.552;2023-09-08T05:59:52;9.02;;;6.53;;
76296;SDS011;65104;52.994;6.552;2023-09-08T06:02:18;10.70;;;7.00;;
76296;SDS011;65104;52.994;6.552;2023-09-08T06:04:43;10.77;;;6.97;;
76296;SDS011;65104;52.994;6.552;2023-09-08T06:07:09;9.75;;;6.15;;
76296;SDS011;65104;52.994;6.552;2023-09-08T06:09:34;7.57;;;6.18;;
76296;SDS011;65104;52.994;6.552;2023-09-08T06:11:59;10.07;;;6.65;;
76296;SDS011;65104;52.994;6.552;2023-09-08T06:14:25;8.95;;;6.35;;
76296;SDS011;65104;52.994;6.552;2023-09-08T06:16:51;8.45;;;6.10;;
76296;SDS011;65104;52.994;6.552;2023-09-08T06:19:16;8.07;;;6.47;;
76296;SDS011;65104;52.994;6.552;2023-09-08T06:21:41;8.35;;;6.20;;
76296;SDS011;65104;52.994;6.552;2023-09-08T06:24:07;8.60;;;5.85;;
76296;SDS011;65104;52.994;6.552;2023-09-08T06:26:32;9.88;;;6.30;;
76296;SDS011;65104;52.994;6.552;2023-09-08T06:28:58;10.68;;;6.53;;
76296;SDS011;65104;52.994;6.552;2023-09-08T06:31:23;9.43;;;6.28;;
76296;SDS011;65104;52.994;6.552;2023-09-08T06:33:48;9.20;;;6.22;;
76296;SDS011;65104;52.994;6.552;2023-09-08T06:36:17;10.38;;;6.00;;
76296;SDS011;65104;52.994;6.552;2023-09-08T06:38:43;8.15;;;5.65;;
76296;SDS011;65104;52.994;6.552;2023-09-08T06:41:09;10.80;;;6.50;;
76296;SDS011;65104;52.994;6.552;2023-09-08T06:43:38;9.85;;;6.35;;
76296;SDS011;65104;52.994;6.552;2023-09-08T06:46:03;10.73;;;6.78;;
76296;SDS011;65104;52.994;6.552;2023-09-08T06:48:29;7.22;;;5.75;;
76296;SDS011;65104;52.994;6.552;2023-09-08T06:50:55;8.82;;;5.88;;
76296;SDS011;65104;52.994;6.552;2023-09-08T06:53:21;7.53;;;5.97;;
76296;SDS011;65104;52.994;6.552;2023-09-08T06:55:47;9.13;;;5.90;;
76296;SDS011;65104;52.994;6.552;2023-09-08T06:58:12;10.13;;;5.85;;
76296;SDS011;65104;52.994;6.552;2023-09-08T07:00:39;8.57;;;6.28;;
76296;SDS011;65104;52.994;6.552;2023-09-08T07:03:05;8.23;;;5.97;;
76296;SDS011;65104;52.994;6.552;2023-09-08T07:05:31;12.32;;;6.65;;
76296;SDS011;65104;52.994;6.552;2023-09-08T07:07:56;7.85;;;5.43;;
76296;SDS011;65104;52.994;6.552;2023-09-08T07:10:21;8.30;;;5.40;;
76296;SDS011;65104;52.994;6.552;2023-09-08T07:12:47;7.65;;;5.50;;
76296;SDS011;65104;52.994;6.552;2023-09-08T07:15:13;7.28;;;4.82;;
76296;SDS011;65104;52.994;6.552;2023-09-08T07:17:38;9.18;;;5.20;;
76296;SDS011;65104;52.994;6.552;2023-09-08T07:20:04;9.70;;;5.05;;
76296;SDS011;65104;52.994;6.552;2023-09-08T07:22:30;5.82;;;4.75;;
76296;SDS011;65104;52.994;6.552;2023-09-08T07:24:56;8.35;;;4.85;;
76296;SDS011;65104;52.994;6.552;2023-09-08T07:27:21;6.45;;;4.63;;
76296;SDS011;65104;52.994;6.552;2023-09-08T07:29:46;8.38;;;5.88;;
76296;SDS011;65104;52.994;6.552;2023-09-08T07:32:14;8.35;;;4.57;;
76296;SDS011;65104;52.994;6.552;2023-09-08T07:34:40;5.53;;;4.80;;
76296;SDS011;65104;52.994;6.552;2023-09-08T07:37:06;6.25;;;4.93;;
76296;SDS011;65104;52.994;6.552;2023-09-08T07:39:31;6.43;;;5.30;;
76296;SDS011;65104;52.994;6.552;2023-09-08T07:41:57;6.95;;;4.40;;
76296;SDS011;65104;52.994;6.552;2023-09-08T07:44:23;5.70;;;5.10;;
76296;SDS011;65104;52.994;6.552;2023-09-08T07:46:48;5.22;;;4.43;;
76296;SDS011;65104;52.994;6.552;2023-09-08T07:49:16;6.88;;;4.63;;
76296;SDS011;65104;52.994;6.552;2023-09-08T07:51:44;7.00;;;5.05;;
76296;SDS011;65104;52.994;6.552;2023-09-08T07:54:10;5.72;;;4.60;;
76296;SDS011;65104;52.994;6.552;2023-09-08T07:56:35;6.18;;;4.63;;
76296;SDS011;65104;52.994;6.552;2023-09-08T07:59:00;7.85;;;4.90;;
76296;SDS011;65104;52.994;6.552;2023-09-08T08:01:26;4.93;;;4.38;;
76296;SDS011;65104;52.994;6.552;2023-09-08T08:03:51;4.95;;;4.45;;
76296;SDS011;65104;52.994;6.552;2023-09-08T08:06:17;6.22;;;4.38;;
76296;SDS011;65104;52.994;6.552;2023-09-08T08:08:42;5.15;;;4.07;;
76296;SDS011;65104;52.994;6.552;2023-09-08T08:11:11;7.70;;;4.70;;
76296;SDS011;65104;52.994;6.552;2023-09-08T08:13:40;8.77;;;4.72;;
76296;SDS011;65104;52.994;6.552;2023-09-08T08:16:06;5.72;;;4.25;;
76296;SDS011;65104;52.994;6.552;2023-09-08T08:18:32;6.25;;;4.10;;
76296;SDS011;65104;52.994;6.552;2023-09-08T08:20:57;5.28;;;4.30;;
76296;SDS011;65104;52.994;6.552;2023-09-08T08:23:25;4.97;;;4.05;;
76296;SDS011;65104;52.994;6.552;2023-09-08T08:25:50;4.75;;;3.70;;
76296;SDS011;65104;52.994;6.552;2023-09-08T08:28:16;5.30;;;4.20;;
76296;SDS011;65104;52.994;6.552;2023-09-08T08:30:41;6.97;;;4.22;;
76296;SDS011;65104;52.994;6.552;2023-09-08T08:33:06;6.72;;;4.75;;
76296;SDS011;65104;52.994;6.552;2023-09-08T08:35:32;5.43;;;4.00;;
76296;SDS011;65104;52.994;6.552;2023-09-08T08:37:58;5.90;;;4.00;;
76296;SDS011;65104;52.994;6.552;2023-09-08T08:40:24;5.10;;;3.90;;
76296;SDS011;65104;52.994;6.552;2023-09-08T08:42:54;3.85;;;3.50;;
76296;SDS011;65104;52.994;6.552;2023-09-08T08:45:20;5.65;;;3.97;;
76296;SDS011;65104;52.994;6.552;2023-09-08T08:47:50;6.35;;;3.72;;
76296;SDS011;65104;52.994;6.552;2023-09-08T08:50:17;4.40;;;3.45;;
76296;SDS011;65104;52.994;6.552;2023-09-08T08:52:43;4.22;;;3.33;;
76296;SDS011;65104;52.994;6.552;2023-09-08T08:55:10;5.03;;;4.03;;
76296;SDS011;65104;52.994;6.552;2023-09-08T08:57:39;4.10;;;3.58;;
76296;SDS011;65104;52.994;6.552;2023-09-08T09:00:08;6.53;;;3.80;;
76296;SDS011;65104;52.994;6.552;2023-09-08T09:02:35;5.43;;;3.97;;
76296;SDS011;65104;52.994;6.552;2023-09-08T09:05:03;5.35;;;3.90;;
76296;SDS011;65104;52.994;6.552;2023-09-08T09:07:30;4.85;;;3.85;;
76296;SDS011;65104;52.994;6.552;2023-09-08T09:09:57;4.75;;;3.30;;
76296;SDS011;65104;52.994;6.552;2023-09-08T09:12:23;4.45;;;3.53;;
76296;SDS011;65104;52.994;6.552;2023-09-08T09:14:52;5.18;;;4.00;;
76296;SDS011;65104;52.994;6.552;2023-09-08T09:17:18;4.65;;;3.88;;
76296;SDS011;65104;52.994;6.552;2023-09-08T09:19:43;4.30;;;3.60;;
76296;SDS011;65104;52.994;6.552;2023-09-08T09:22:09;4.18;;;3.50;;
76296;SDS011;65104;52.994;6.552;2023-09-08T09:24:38;5.25;;;3.60;;
76296;SDS011;65104;52.994;6.552;2023-09-08T09:27:11;4.47;;;3.50;;
76296;SDS011;65104;52.994;6.552;2023-09-08T09:29:47;5.95;;;4.53;;
76296;SDS011;65104;52.994;6.552;2023-09-08T09:32:15;5.65;;;3.60;;
76296;SDS011;65104;52.994;6.552;2023-09-08T09:37:14;3.97;;;3.22;;
76296;SDS011;65104;52.994;6.552;2023-09-08T09:39:40;3.63;;;3.28;;
76296;SDS011;65104;52.994;6.552;2023-09-08T09:42:05;4.28;;;3.40;;
76296;SDS011;65104;52.994;6.552;2023-09-08T09:44:31;4.03;;;3.10;;
76296;SDS011;65104;52.994;6.552;2023-09-08T09:46:57;3.92;;;3.53;;
76296;SDS011;65104;52.994;6.552;2023-09-08T09:49:22;4.20;;;3.65;;
76296;SDS011;65104;52.994;6.552;2023-09-08T09:51:53;3.72;;;3.38;;
76296;SDS011;65104;52.994;6.552;2023-09-08T09:54:19;5.05;;;3.63;;
76296;SDS011;65104;52.994;6.552;2023-09-08T09:56:44;4.70;;;3.78;;
76296;SDS011;65104;52.994;6.552;2023-09-08T09:59:12;3.92;;;3.45;;
76296;SDS011;65104;52.994;6.552;2023-09-08T10:01:39;5.35;;;3.92;;
76296;SDS011;65104;52.994;6.552;2023-09-08T10:04:06;4.70;;;3.63;;
76296;SDS011;65104;52.994;6.552;2023-09-08T10:06:32;5.13;;;3.70;;
76296;SDS011;65104;52.994;6.552;2023-09-08T10:08:59;4.55;;;3.90;;
76296;SDS011;65104;52.994;6.552;2023-09-08T10:11:27;4.65;;;3.60;;
76296;SDS011;65104;52.994;6.552;2023-09-08T10:13:55;4.57;;;3.70;;
76296;SDS011;65104;52.994;6.552;2023-09-08T10:16:25;4.72;;;3.47;;
76296;SDS011;65104;52.994;6.552;2023-09-08T10:18:56;4.78;;;3.60;;
76296;SDS011;65104;52.994;6.552;2023-09-08T10:21:24;4.28;;;3.40;;
76296;SDS011;65104;52.994;6.552;2023-09-08T10:23:54;4.43;;;3.20;;
76296;SDS011;65104;52.994;6.552;2023-09-08T10:26:51;3.80;;;3.47;;
76296;SDS011;65104;52.994;6.552;2023-09-08T10:29:29;3.33;;;3.03;;
76296;SDS011;65104;52.994;6.552;2023-09-08T10:31:56;4.93;;;3.78;;
76296;SDS011;65104;52.994;6.552;2023-09-08T10:34:23;6.70;;;3.75;;
76296;SDS011;65104;52.994;6.552;2023-09-08T10:36:50;5.45;;;3.42;;
76296;SDS011;65104;52.994;6.552;2023-09-08T10:39:26;5.10;;;3.53;;
76296;SDS011;65104;52.994;6.552;2023-09-08T10:44:44;5.10;;;3.60;;
76296;SDS011;65104;52.994;6.552;2023-09-08T10:47:24;4.03;;;3.47;;
76296;SDS011;65104;52.994;6.552;2023-09-08T10:49:51;4.07;;;3.60;;
76296;SDS011;65104;52.994;6.552;2023-09-08T10:52:20;4.45;;;3.90;;
76296;SDS011;65104;52.994;6.552;2023-09-08T10:54:48;4.13;;;3.72;;
76296;SDS011;65104;52.994;6.552;2023-09-08T10:57:15;4.15;;;3.67;;
76296;SDS011;65104;52.994;6.552;2023-09-08T10:59:51;4.18;;;3.75;;
76296;SDS011;65104;52.994;6.552;2023-09-08T11:05:08;4.97;;;3.60;;
76296;SDS011;65104;52.994;6.552;2023-09-08T11:07:36;5.00;;;4.10;;
76296;SDS011;65104;52.994;6.552;2023-09-08T11:10:02;4.60;;;3.20;;
76296;SDS011;65104;52.994;6.552;2023-09-08T11:12:28;4.30;;;3.67;;
76296;SDS011;65104;52.994;6.552;2023-09-08T11:14:54;5.97;;;4.00;;
76296;SDS011;65104;52.994;6.552;2023-09-08T11:17:19;5.05;;;3.85;;
76296;SDS011;65104;52.994;6.552;2023-09-08T11:19:45;4.85;;;4.13;;
76296;SDS011;65104;52.994;6.552;2023-09-08T11:22:12;6.88;;;3.85;;
76296;SDS011;65104;52.994;6.552;2023-09-08T11:24:38;5.20;;;3.50;;
76296;SDS011;65104;52.994;6.552;2023-09-08T11:27:04;4.55;;;3.30;;
76296;SDS011;65104;52.994;6.552;2023-09-08T11:29:30;4.00;;;3.60;;
76296;SDS011;65104;52.994;6.552;2023-09-08T11:31:56;5.55;;;3.40;;
76296;SDS011;65104;52.994;6.552;2023-09-08T11:34:21;8.60;;;3.72;;
76296;SDS011;65104;52.994;6.552;2023-09-08T11:36:47;5.82;;;3.85;;
76296;SDS011;65104;52.994;6.552;2023-09-08T11:39:13;3.60;;;2.97;;
76296;SDS011;65104;52.994;6.552;2023-09-08T11:44:04;3.95;;;3.00;;
76296;SDS011;65104;52.994;6.552;2023-09-08T11:46:30;4.05;;;3.55;;
76296;SDS011;65104;52.994;6.552;2023-09-08T11:48:55;3.75;;;3.38;;
76296;SDS011;65104;52.994;6.552;2023-09-08T11:51:26;4.93;;;2.92;;
76296;SDS011;65104;52.994;6.552;2023-09-08T11:53:52;3.65;;;2.80;;
76296;SDS011;65104;52.994;6.552;2023-09-08T11:56:18;3.92;;;3.15;;
76296;SDS011;65104;52.994;6.552;2023-09-08T11:58:44;3.95;;;2.83;;
76296;SDS011;65104;52.994;6.552;2023-09-08T12:01:10;4.90;;;2.90;;
76296;SDS011;65104;52.994;6.552;2023-09-08T12:03:35;3.85;;;3.00;;
76296;SDS011;65104;52.994;6.552;2023-09-08T12:06:16;3.60;;;3.13;;
76296;SDS011;65104;52.994;6.552;2023-09-08T12:08:42;2.90;;;2.47;;
76296;SDS011;65104;52.994;6.552;2023-09-08T12:11:09;4.13;;;3.08;;
76296;SDS011;65104;52.994;6.552;2023-09-08T12:13:34;3.63;;;2.70;;
76296;SDS011;65104;52.994;6.552;2023-09-08T12:16:00;3.45;;;2.88;;
76296;SDS011;65104;52.994;6.552;2023-09-08T12:18:38;3.13;;;2.70;;
76296;SDS011;65104;52.994;6.552;2023-09-08T12:21:04;4.47;;;3.15;;
76296;SDS011;65104;52.994;6.552;2023-09-08T12:23:30;3.78;;;2.70;;
76296;SDS011;65104;52.994;6.552;2023-09-08T12:25:56;3.70;;;2.90;;
76296;SDS011;65104;52.994;6.552;2023-09-08T12:28:22;3.38;;;3.00;;
76296;SDS011;65104;52.994;6.552;2023-09-08T12:30:48;4.53;;;2.90;;
76296;SDS011;65104;52.994;6.552;2023-09-08T12:33:14;2.90;;;2.45;;
76296;SDS011;65104;52.994;6.552;2023-09-08T12:35:42;4.60;;;2.88;;
76296;SDS011;65104;52.994;6.552;2023-09-08T12:38:09;3.67;;;2.90;;
76296;SDS011;65104;52.994;6.552;2023-09-08T12:40:35;3.95;;;3.05;;
76296;SDS011;65104;52.994;6.552;2023-09-08T12:43:02;2.95;;;2.58;;
76296;SDS011;65104;52.994;6.552;2023-09-08T12:45:29;3.38;;;2.60;;
76296;SDS011;65104;52.994;6.552;2023-09-08T12:47:57;3.45;;;3.03;;
76296;SDS011;65104;52.994;6.552;2023-09-08T12:50:23;3.45;;;2.35;;
76296;SDS011;65104;52.994;6.552;2023-09-08T12:52:49;3.03;;;2.13;;
76296;SDS011;65104;52.994;6.552;2023-09-08T12:55:15;4.95;;;2.70;;
76296;SDS011;65104;52.994;6.552;2023-09-08T12:57:40;4.03;;;2.83;;
76296;SDS011;65104;52.994;6.552;2023-09-08T13:00:06;3.45;;;3.03;;
76296;SDS011;65104;52.994;6.552;2023-09-08T13:02:32;4.18;;;2.85;;
76296;SDS011;65104;52.994;6.552;2023-09-08T13:04:58;3.10;;;2.35;;
76296;SDS011;65104;52.994;6.552;2023-09-08T13:07:23;4.03;;;2.85;;
76296;SDS011;65104;52.994;6.552;2023-09-08T13:09:49;3.53;;;2.80;;
76296;SDS011;65104;52.994;6.552;2023-09-08T13:12:15;4.25;;;2.75;;
76296;SDS011;65104;52.994;6.552;2023-09-08T13:14:41;3.33;;;2.92;;
76296;SDS011;65104;52.994;6.552;2023-09-08T13:17:08;4.95;;;3.05;;
76296;SDS011;65104;52.994;6.552;2023-09-08T13:19:35;4.07;;;2.55;;
76296;SDS011;65104;52.994;6.552;2023-09-08T13:22:00;2.90;;;2.53;;
76296;SDS011;65104;52.994;6.552;2023-09-08T13:24:25;3.15;;;2.70;;
76296;SDS011;65104;52.994;6.552;2023-09-08T13:26:51;3.47;;;2.70;;
76296;SDS011;65104;52.994;6.552;2023-09-08T13:29:16;3.67;;;2.92;;
76296;SDS011;65104;52.994;6.552;2023-09-08T13:31:42;3.28;;;2.67;;
76296;SDS011;65104;52.994;6.552;2023-09-08T13:34:07;3.97;;;3.05;;
76296;SDS011;65104;52.994;6.552;2023-09-08T13:36:33;3.55;;;2.53;;
76296;SDS011;65104;52.994;6.552;2023-09-08T13:38:59;4.82;;;2.70;;
76296;SDS011;65104;52.994;6.552;2023-09-08T13:41:25;3.97;;;3.10;;
76296;SDS011;65104;52.994;6.552;2023-09-08T13:44:08;4.70;;;2.47;;
76296;SDS011;65104;52.994;6.552;2023-09-08T13:46:33;4.97;;;2.90;;
76296;SDS011;65104;52.994;6.552;2023-09-08T13:48:58;4.43;;;2.60;;
76296;SDS011;65104;52.994;6.552;2023-09-08T13:51:24;3.10;;;2.70;;
76296;SDS011;65104;52.994;6.552;2023-09-08T13:53:49;3.53;;;2.90;;
76296;SDS011;65104;52.994;6.552;2023-09-08T13:56:14;3.63;;;3.13;;
76296;SDS011;65104;52.994;6.552;2023-09-08T13:58:40;3.45;;;3.15;;
76296;SDS011;65104;52.994;6.552;2023-09-08T14:01:09;3.03;;;2.72;;
76296;SDS011;65104;52.994;6.552;2023-09-08T14:03:34;3.47;;;2.78;;
76296;SDS011;65104;52.994;6.552;2023-09-08T14:06:00;3.85;;;2.92;;
76296;SDS011;65104;52.994;6.552;2023-09-08T14:08:25;3.42;;;2.90;;
76296;SDS011;65104;52.994;6.552;2023-09-08T14:10:50;3.30;;;3.00;;
76296;SDS011;65104;52.994;6.552;2023-09-08T14:13:16;4.00;;;2.90;;
76296;SDS011;65104;52.994;6.552;2023-09-08T14:15:41;12.32;;;5.57;;
76296;SDS011;65104;52.994;6.552;2023-09-08T14:18:07;4.90;;;3.65;;
76296;SDS011;65104;52.994;6.552;2023-09-08T14:20:32;4.85;;;3.22;;
76296;SDS011;65104;52.994;6.552;2023-09-08T14:22:57;3.63;;;2.72;;
76296;SDS011;65104;52.994;6.552;2023-09-08T14:25:23;4.38;;;3.40;;
76296;SDS011;65104;52.994;6.552;2023-09-08T14:27:48;3.45;;;3.15;;
76296;SDS011;65104;52.994;6.552;2023-09-08T14:30:14;4.47;;;2.90;;
76296;SDS011;65104;52.994;6.552;2023-09-08T14:32:39;3.28;;;2.78;;
76296;SDS011;65104;52.994;6.552;2023-09-08T14:35:04;3.65;;;2.92;;
76296;SDS011;65104;52.994;6.552;2023-09-08T14:37:30;3.05;;;2.67;;
76296;SDS011;65104;52.994;6.552;2023-09-08T14:39:55;3.22;;;2.92;;
76296;SDS011;65104;52.994;6.552;2023-09-08T14:42:21;3.03;;;2.70;;
76296;SDS011;65104;52.994;6.552;2023-09-08T14:44:46;3.97;;;3.15;;
76296;SDS011;65104;52.994;6.552;2023-09-08T14:47:11;4.15;;;3.25;;
76296;SDS011;65104;52.994;6.552;2023-09-08T14:49:37;4.25;;;3.05;;
76296;SDS011;65104;52.994;6.552;2023-09-08T14:52:03;5.32;;;4.03;;
76296;SDS011;65104;52.994;6.552;2023-09-08T14:54:28;4.20;;;3.17;;